Time;durP1;ratioP1;P1;durP2;ratioP2;P2;SDS_P1;SDS_P2;PMS_P1;PMS_P2;Temp;Humidity;BMP_temperature;BMP_pressure;BME280_temperature;BME280_humidity;BME280_pressure;Samples;Min_cycle;Max_cycle;Signal;HPM_P1;HPM_P2
2024/04/24 00:00:42;;;;;;;19.10;11.90;;;5.90;99.90;;;;;;5385349;26;20234;-80
2024/04/24 00:03:11;;;;;;;17.93;11.57;;;5.80;99.90;;;;;;5382202;26;20264;-79
2024/04/24 00:05:39;;;;;;;18.30;11.33;;;5.80;1.00;;;;;;5391792;26;20277;-80
2024/04/24 00:08:11;;;;;;;17.43;11.20;;;5.80;99.90;;;;;;5387311;26;20343;-80
2024/04/24 00:10:40;;;;;;;18.10;10.63;;;5.70;99.90;;;;;;5393434;26;20249;-80
2024/04/24 00:13:08;;;;;;;18.73;12.03;;;5.80;99.90;;;;;;5390942;26;20291;-81
2024/04/24 00:15:37;;;;;;;18.60;11.60;;;5.80;99.90;;;;;;5391412;26;20234;-81
2024/04/24 00:18:06;;;;;;;21.53;12.40;;;5.70;99.90;;;;;;5390700;26;20249;-79
2024/04/24 00:20:35;;;;;;;18.70;11.70;;;5.70;99.90;;;;;;5389728;26;20245;-82
2024/04/24 00:23:03;;;;;;;18.60;11.33;;;5.80;99.90;;;;;;5391017;26;20237;-82
2024/04/24 00:25:35;;;;;;;18.63;11.70;;;5.70;99.90;;;;;;5390287;26;20242;-81
2024/04/24 00:28:04;;;;;;;19.10;12.03;;;5.70;99.90;;;;;;5390687;26;20253;-83
2024/04/24 00:30:32;;;;;;;17.97;11.80;;;5.70;99.90;;;;;;5391822;26;20218;-80
2024/04/24 00:33:01;;;;;;;19.50;12.13;;;5.60;99.90;;;;;;5390390;26;20268;-82
2024/04/24 00:35:29;;;;;;;22.07;11.73;;;5.60;99.90;;;;;;5376234;26;20276;-82
2024/04/24 00:37:58;;;;;;;21.20;13.20;;;5.60;99.90;;;;;;5391387;26;20819;-78
2024/04/24 00:40:27;;;;;;;21.30;13.53;;;5.60;99.90;;;;;;5370898;26;20261;-80
2024/04/24 00:42:58;;;;;;;22.03;13.30;;;5.60;99.90;;;;;;5376579;26;20246;-82
2024/04/24 00:45:27;;;;;;;21.27;12.70;;;5.50;99.90;;;;;;5381840;26;20784;-79
2024/04/24 00:47:53;;;;;;;21.53;12.70;;;5.50;99.90;;;;;;5388292;26;20238;-82
2024/04/24 00:50:24;;;;;;;20.80;12.33;;;5.50;99.90;;;;;;5391076;26;20249;-81
2024/04/24 00:52:53;;;;;;;21.20;13.27;;;5.50;1.00;;;;;;5390111;26;20790;-80
2024/04/24 00:55:21;;;;;;;19.03;13.50;;;5.40;1.00;;;;;;5391876;26;20229;-79
2024/04/24 00:57:50;;;;;;;22.57;13.73;;;5.30;1.00;;;;;;5391357;26;20297;-79
2024/04/24 01:00:22;;;;;;;21.63;12.70;;;5.30;1.00;;;;;;5381740;26;20293;-79
2024/04/24 01:02:51;;;;;;;20.50;12.60;;;5.30;1.00;;;;;;5389804;26;20222;-79
2024/04/24 01:05:20;;;;;;;21.13;12.80;;;5.30;1.00;;;;;;5389938;26;20283;-80
2024/04/24 01:07:49;;;;;;;21.53;13.00;;;5.30;99.90;;;;;;5389863;26;20229;-81
2024/04/24 01:10:19;;;;;;;22.37;13.23;;;5.20;17.70;;;;;;5391378;26;20226;-82
2024/04/24 01:12:48;;;;;;;23.83;13.70;;;5.20;99.90;;;;;;5389394;26;20276;-79
2024/04/24 01:15:17;;;;;;;21.60;13.93;;;5.20;99.90;;;;;;5390501;26;20637;-78
2024/04/24 01:17:51;;;;;;;21.67;13.30;;;5.20;99.90;;;;;;5388436;26;20237;-79
2024/04/24 01:20:26;;;;;;;22.17;13.60;;;5.20;1.00;;;;;;5391112;26;20563;-80
2024/04/24 01:23:20;;;;;;;23.23;13.70;;;5.10;1.00;;;;;;5390035;26;20249;-81
2024/04/24 01:25:54;;;;;;;21.80;13.97;;;5.20;1.00;;;;;;5392063;26;20295;-79
2024/04/24 01:28:26;;;;;;;22.93;13.60;;;5.00;1.00;;;;;;5380647;26;20275;-78
2024/04/24 01:30:55;;;;;;;22.80;13.97;;;5.00;1.00;;;;;;5391173;26;20241;-79
2024/04/24 01:33:23;;;;;;;22.83;14.13;;;5.10;99.90;;;;;;5390737;26;20237;-81
2024/04/24 01:35:49;;;;;;;23.50;14.50;;;5.10;99.90;;;;;;5391055;26;20297;-82
2024/04/24 01:38:18;;;;;;;22.07;13.90;;;5.10;1.00;;;;;;5391625;26;20305;-82
2024/04/24 01:40:47;;;;;;;23.07;14.37;;;5.10;1.00;;;;;;5383969;26;20583;-80
2024/04/24 01:43:15;;;;;;;22.73;14.53;;;5.20;1.00;;;;;;5386240;26;20323;-81
2024/04/24 01:45:46;;;;;;;22.83;13.80;;;5.10;1.00;;;;;;5391299;26;20233;-82
2024/04/24 01:48:15;;;;;;;23.37;14.60;;;5.10;1.00;;;;;;5385712;26;20246;-80
2024/04/24 01:50:44;;;;;;;21.17;13.50;;;5.10;92.00;;;;;;5399879;26;20786;-83
2024/04/24 01:53:13;;;;;;;21.17;13.50;;;5.10;1.00;;;;;;5389430;26;20283;-81
2024/04/24 01:55:39;;;;;;;22.03;13.77;;;5.00;1.00;;;;;;5378424;26;20249;-81
2024/04/24 01:58:08;;;;;;;21.53;13.73;;;5.00;1.00;;;;;;5387786;26;20295;-82
2024/04/24 02:00:37;;;;;;;21.60;14.07;;;5.00;1.00;;;;;;5387819;26;20249;-81
2024/04/24 02:03:08;;;;;;;21.63;13.77;;;4.90;1.00;;;;;;5381495;26;20275;-79
2024/04/24 02:05:37;;;;;;;22.47;13.17;;;4.90;11.70;;;;;;5385080;26;20386;-81
2024/04/24 02:08:07;;;;;;;22.10;13.73;;;4.90;99.90;;;;;;5387103;26;20669;-81
2024/04/24 02:10:36;;;;;;;21.23;13.30;;;4.90;99.90;;;;;;5388880;26;20234;-80
2024/04/24 02:13:05;;;;;;;20.57;13.00;;;4.90;99.90;;;;;;5386570;26;20257;-80
2024/04/24 02:15:34;;;;;;;20.30;12.70;;;4.90;99.90;;;;;;5401752;26;20300;-81
2024/04/24 02:18:08;;;;;;;18.23;12.27;;;4.90;99.90;;;;;;5384240;26;20778;-79
2024/04/24 02:20:37;;;;;;;19.03;12.57;;;5.00;99.90;;;;;;5383153;26;20294;-80
2024/04/24 02:23:06;;;;;;;19.80;12.13;;;4.90;99.90;;;;;;5378711;26;20358;-80
2024/04/24 02:25:36;;;;;;;21.40;12.80;;;4.90;99.90;;;;;;5389340;26;20267;-76
2024/04/24 02:28:05;;;;;;;20.37;12.23;;;5.00;99.90;;;;;;5388650;26;20242;-77
2024/04/24 02:30:34;;;;;;;20.93;12.93;;;4.90;99.90;;;;;;5392061;26;20233;-81
2024/04/24 02:33:04;;;;;;;20.47;13.13;;;4.90;99.90;;;;;;5381345;26;20243;-81
2024/04/24 02:35:36;;;;;;;22.70;13.57;;;5.00;99.90;;;;;;5383823;26;20241;-82
2024/04/24 02:38:04;;;;;;;21.13;13.27;;;4.90;99.90;;;;;;5389322;26;21054;-81
2024/04/24 02:40:33;;;;;;;21.10;12.83;;;4.90;99.90;;;;;;5392241;26;20293;-80
2024/04/24 02:43:02;;;;;;;21.93;13.73;;;4.80;99.90;;;;;;5382123;26;20344;-81
2024/04/24 02:45:30;;;;;;;25.57;15.60;;;4.70;1.00;;;;;;5378892;26;20247;-81
2024/04/24 02:47:59;;;;;;;25.93;15.60;;;4.60;1.00;;;;;;5391490;26;20293;-80
2024/04/24 02:50:28;;;;;;;23.50;13.80;;;4.60;1.00;;;;;;5391058;26;20237;-81
2024/04/24 02:53:00;;;;;;;19.43;12.07;;;4.60;1.00;;;;;;5389755;26;20315;-81
2024/04/24 02:55:28;;;;;;;21.23;13.07;;;4.50;1.00;;;;;;5379931;26;20296;-80
2024/04/24 02:57:57;;;;;;;21.83;12.70;;;4.50;1.00;;;;;;5389029;26;20296;-81
2024/04/24 03:00:26;;;;;;;20.50;12.27;;;4.50;1.00;;;;;;5383583;26;20292;-79
2024/04/24 03:02:54;;;;;;;18.97;11.70;;;4.40;1.00;;;;;;5387779;26;20242;-81
2024/04/24 03:05:23;;;;;;;18.40;11.17;;;4.30;1.00;;;;;;5390584;26;20571;-80
2024/04/24 03:07:52;;;;;;;18.47;11.30;;;4.30;1.00;;;;;;5390691;26;20226;-81
2024/04/24 03:10:23;;;;;;;18.70;10.63;;;4.20;1.00;;;;;;5391496;26;20249;-80
2024/04/24 03:12:52;;;;;;;17.90;10.33;;;4.20;1.00;;;;;;5390697;26;20233;-82
2024/04/24 03:15:20;;;;;;;18.13;9.83;;;4.10;1.00;;;;;;5391483;26;20276;-82
2024/04/24 03:17:49;;;;;;;16.83;9.47;;;4.00;1.00;;;;;;5389112;26;20996;-78
2024/04/24 03:20:17;;;;;;;16.70;10.70;;;4.00;1.00;;;;;;5389145;26;20233;-79
2024/04/24 03:22:46;;;;;;;19.83;11.10;;;3.90;1.00;;;;;;5387946;26;20238;-79
2024/04/24 03:25:15;;;;;;;20.73;13.33;;;3.80;1.00;;;;;;5387579;26;20246;-79
2024/04/24 03:27:46;;;;;;;21.97;12.70;;;3.80;90.60;;;;;;5374147;26;20774;-81
2024/04/24 03:30:15;;;;;;;17.13;10.70;;;3.70;99.90;;;;;;5379684;26;20719;-78
2024/04/24 03:32:44;;;;;;;16.43;10.90;;;3.60;99.90;;;;;;5387284;26;20242;-80
2024/04/24 03:35:12;;;;;;;16.03;9.40;;;3.50;1.00;;;;;;5387730;26;20230;-80
2024/04/24 03:37:41;;;;;;;15.53;9.97;;;3.50;1.00;;;;;;5387419;26;20280;-79
2024/04/24 03:40:10;;;;;;;18.23;10.23;;;3.50;1.00;;;;;;5387960;26;20226;-80
2024/04/24 03:42:39;;;;;;;13.93;9.33;;;3.50;1.00;;;;;;5388994;26;20287;-79
2024/04/24 03:45:10;;;;;;;16.23;10.30;;;3.50;1.00;;;;;;5387965;26;20234;-81
2024/04/24 03:47:39;;;;;;;16.47;9.97;;;3.50;1.00;;;;;;5385888;26;20283;-80
2024/04/24 03:50:09;;;;;;;18.20;11.27;;;3.50;67.30;;;;;;5388040;26;20252;-81
2024/04/24 03:52:37;;;;;;;18.00;9.93;;;3.50;99.90;;;;;;5388665;26;20751;-79
2024/04/24 03:55:07;;;;;;;16.17;9.63;;;3.60;99.90;;;;;;5383825;26;21151;-79
2024/04/24 03:57:35;;;;;;;16.43;9.53;;;3.60;99.90;;;;;;5379528;26;20284;-78
2024/04/24 04:00:04;;;;;;;15.50;8.83;;;3.60;99.90;;;;;;5388321;26;20234;-80
2024/04/24 04:02:35;;;;;;;13.27;8.60;;;3.80;99.90;;;;;;5388009;26;20263;-79
2024/04/24 04:05:04;;;;;;;14.63;9.07;;;3.80;99.90;;;;;;5384146;26;20267;-78
2024/04/24 04:07:33;;;;;;;14.97;8.47;;;3.90;99.90;;;;;;5378597;26;20279;-80
2024/04/24 04:10:02;;;;;;;15.53;7.90;;;3.90;99.90;;;;;;5388565;26;20242;-81
2024/04/24 04:12:31;;;;;;;14.83;8.13;;;3.90;1.00;;;;;;5387844;26;20245;-80
2024/04/24 04:15:00;;;;;;;13.73;8.10;;;4.00;1.00;;;;;;5382419;26;20260;-79
2024/04/24 04:17:29;;;;;;;12.60;7.50;;;4.10;1.00;;;;;;5375454;26;21507;-78
2024/04/24 04:20:00;;;;;;;13.93;7.80;;;4.10;1.00;;;;;;5367858;26;20348;-77
2024/04/24 04:22:29;;;;;;;15.77;7.40;;;4.20;1.00;;;;;;5386748;26;20221;-77
2024/04/24 04:24:57;;;;;;;13.57;7.03;;;4.20;1.00;;;;;;5387467;26;20275;-77
2024/04/24 04:27:26;;;;;;;16.63;7.67;;;4.20;1.00;;;;;;5387299;26;20271;-80
2024/04/24 04:29:55;;;;;;;14.40;7.07;;;4.30;99.90;;;;;;5387962;26;20622;-78
2024/04/24 04:32:23;;;;;;;15.77;7.53;;;4.40;1.00;;;;;;5387881;26;20260;-80
2024/04/24 04:34:52;;;;;;;12.87;7.27;;;4.50;1.00;;;;;;5388064;26;20433;-80
2024/04/24 04:37:23;;;;;;;11.17;7.03;;;4.60;1.00;;;;;;5386791;26;20289;-80
2024/04/24 04:39:52;;;;;;;12.60;7.70;;;4.50;1.00;;;;;;5387928;26;20712;-79
2024/04/24 04:42:21;;;;;;;12.30;7.23;;;4.60;1.00;;;;;;5388106;26;20257;-77
2024/04/24 04:44:50;;;;;;;13.67;7.10;;;4.60;1.00;;;;;;5387334;26;20272;-80
2024/04/24 04:47:18;;;;;;;13.93;7.30;;;4.60;1.00;;;;;;5373282;26;20249;-80
2024/04/24 04:49:47;;;;;;;13.53;7.27;;;4.70;1.00;;;;;;5388317;26;20238;-79
2024/04/24 04:52:16;;;;;;;17.37;7.10;;;4.60;1.00;;;;;;5371719;26;20297;-79
2024/04/24 04:54:47;;;;;;;15.90;6.40;;;4.70;99.90;;;;;;5387607;26;20242;-81
2024/04/24 04:57:16;;;;;;;17.13;6.50;;;4.80;42.80;;;;;;5387029;26;20226;-79
2024/04/24 04:59:44;;;;;;;11.23;6.10;;;4.80;1.00;;;;;;5386298;26;20230;-79
2024/04/24 05:02:13;;;;;;;13.57;6.97;;;4.80;1.00;;;;;;5386089;26;20867;-80
2024/04/24 05:04:42;;;;;;;11.40;5.90;;;4.90;1.00;;;;;;5386866;26;20222;-80
2024/04/24 05:07:10;;;;;;;12.13;6.13;;;4.80;1.00;;;;;;5385993;26;20276;-77
2024/04/24 05:09:39;;;;;;;10.93;6.20;;;4.80;1.00;;;;;;5386858;26;20242;-81
2024/04/24 05:12:11;;;;;;;12.57;6.60;;;4.90;1.00;;;;;;5386366;26;20273;-80
2024/04/24 05:14:40;;;;;;;12.03;6.17;;;4.90;1.00;;;;;;5387228;26;20606;-81
2024/04/24 05:17:10;;;;;;;11.23;6.20;;;5.00;99.90;;;;;;5387265;26;20222;-80
2024/04/24 05:19:39;;;;;;;12.47;6.70;;;5.00;99.90;;;;;;5387402;26;20221;-78
2024/04/24 05:22:09;;;;;;;13.87;6.20;;;5.10;1.00;;;;;;5382723;26;20268;-78
2024/04/24 05:24:37;;;;;;;9.97;5.53;;;5.20;1.00;;;;;;5386783;26;20237;-80
2024/04/24 05:29:53;;;;;;;10.17;5.10;;;5.40;1.00;;;;;;5388617;26;20315;-80
2024/04/24 05:32:22;;;;;;;9.30;5.43;;;5.40;1.00;;;;;;5373105;26;20233;-80
2024/04/24 05:34:51;;;;;;;12.57;5.40;;;5.50;1.00;;;;;;5385558;26;20229;-81
2024/04/24 05:37:19;;;;;;;11.77;4.83;;;5.50;99.90;;;;;;5386110;26;20276;-78
2024/04/24 05:39:48;;;;;;;10.93;4.83;;;5.60;99.90;;;;;;5385118;26;20617;-79
2024/04/24 05:42:17;;;;;;;8.90;4.37;;;5.70;99.90;;;;;;5371721;26;20264;-79
2024/04/24 05:44:46;;;;;;;9.30;4.13;;;5.70;1.00;;;;;;5362567;26;20242;-79
2024/04/24 05:47:17;;;;;;;11.70;4.60;;;5.70;1.00;;;;;;5384840;26;20272;-79
2024/04/24 05:49:45;;;;;;;10.97;5.10;;;5.80;1.00;;;;;;5380823;26;20295;-80
2024/04/24 05:52:14;;;;;;;10.57;4.43;;;5.90;1.00;;;;;;5377910;26;20700;-79
2024/04/24 05:54:43;;;;;;;9.43;3.63;;;5.70;99.90;;;;;;5377854;26;20245;-80
2024/04/24 05:57:11;;;;;;;8.40;4.17;;;5.90;1.00;;;;;;5385802;26;20276;-80
2024/04/24 05:59:37;;;;;;;6.00;3.50;;;5.90;99.90;;;;;;5386783;26;20836;-79
2024/04/24 06:02:06;;;;;;;9.17;3.40;;;6.00;99.90;;;;;;5386517;26;20276;-80
2024/04/24 06:04:37;;;;;;;10.63;3.77;;;6.00;1.00;;;;;;5387357;26;20246;-78
2024/04/24 06:07:06;;;;;;;9.20;3.20;;;5.70;1.00;;;;;;5387272;26;20761;-78
2024/04/24 06:09:35;;;;;;;8.57;3.07;;;5.90;1.00;;;;;;5387468;26;20291;-80
2024/04/24 06:12:04;;;;;;;7.77;3.30;;;5.80;1.00;;;;;;5376875;26;20233;-79
2024/04/24 06:14:33;;;;;;;12.33;4.30;;;5.90;1.00;;;;;;5386065;26;20292;-79
2024/04/24 06:17:01;;;;;;;10.00;3.50;;;6.00;97.90;;;;;;5386267;26;20295;-79
2024/04/24 06:19:30;;;;;;;10.67;3.50;;;5.90;1.00;;;;;;5387320;26;20679;-79
2024/04/24 06:22:01;;;;;;;11.57;3.77;;;5.70;1.00;;;;;;5386443;26;20284;-78
2024/04/24 06:24:30;;;;;;;8.57;3.20;;;5.80;1.00;;;;;;5382159;26;20287;-77
2024/04/24 06:26:59;;;;;;;8.17;3.13;;;5.80;22.80;;;;;;5386002;26;20233;-81
2024/04/24 06:29:27;;;;;;;8.30;3.20;;;5.80;1.00;;;;;;5385690;26;20581;-79
2024/04/24 06:31:56;;;;;;;10.03;3.47;;;5.90;1.00;;;;;;5385567;26;20237;-80
2024/04/24 06:34:25;;;;;;;8.93;3.43;;;6.00;1.00;;;;;;5370873;26;20230;-80
2024/04/24 06:36:54;;;;;;;9.57;3.00;;;6.00;1.00;;;;;;5386802;26;20723;-78
2024/04/24 06:39:25;;;;;;;8.77;3.27;;;5.90;1.00;;;;;;5384953;26;20341;-80
2024/04/24 06:41:54;;;;;;;11.10;3.40;;;6.10;1.00;;;;;;5386594;26;20291;-80
2024/04/24 06:44:23;;;;;;;10.00;2.87;;;6.20;1.00;;;;;;5383932;26;20265;-78
2024/04/24 06:46:51;;;;;;;9.93;3.10;;;6.40;1.00;;;;;;5384272;26;20233;-79
2024/04/24 06:49:20;;;;;;;9.17;2.83;;;6.30;1.00;;;;;;5384895;26;20272;-78
2024/04/24 06:51:49;;;;;;;7.13;2.67;;;6.30;1.00;;;;;;5386918;26;20257;-78
2024/04/24 06:54:17;;;;;;;6.30;2.70;;;6.40;99.90;;;;;;5386044;26;20229;-80
2024/04/24 06:56:49;;;;;;;8.17;3.40;;;6.10;60.10;;;;;;5385912;26;20233;-80
2024/04/24 06:59:17;;;;;;;7.47;2.60;;;6.30;99.90;;;;;;5386374;26;20238;-80
2024/04/24 07:01:46;;;;;;;6.87;2.90;;;6.40;99.90;;;;;;5389196;26;20275;-77
2024/04/24 07:04:15;;;;;;;7.30;3.17;;;6.30;1.00;;;;;;5389908;26;20250;-77
2024/04/24 07:06:43;;;;;;;6.83;2.87;;;6.30;1.00;;;;;;5389913;26;20233;-80
2024/04/24 07:09:12;;;;;;;10.60;2.70;;;6.30;1.00;;;;;;5389288;26;20666;-78
2024/04/24 07:11:41;;;;;;;9.13;3.53;;;6.50;1.00;;;;;;5389799;26;20241;-79
2024/04/24 07:14:12;;;;;;;5.83;2.60;;;6.50;1.00;;;;;;5389109;26;20727;-80
2024/04/24 07:16:41;;;;;;;12.03;2.70;;;6.60;1.00;;;;;;5390282;26;20238;-80
2024/04/24 07:19:09;;;;;;;5.83;2.30;;;6.40;1.00;;;;;;5389165;26;20277;-77
2024/04/24 07:21:38;;;;;;;11.20;2.80;;;6.50;1.00;;;;;;5380553;26;20271;-78
2024/04/24 07:24:07;;;;;;;7.30;2.47;;;6.60;1.00;;;;;;5385274;26;20290;-80
2024/04/24 07:26:36;;;;;;;6.50;2.40;;;6.60;1.00;;;;;;5367127;26;20253;-79
2024/04/24 07:29:05;;;;;;;6.17;3.00;;;6.40;1.00;;;;;;5374768;26;20584;-79
2024/04/24 07:31:36;;;;;;;12.00;2.53;;;6.50;1.00;;;;;;5388799;26;20222;-79
2024/04/24 07:34:05;;;;;;;7.97;2.27;;;6.50;1.00;;;;;;5389001;26;20230;-80
2024/04/24 07:36:34;;;;;;;7.83;2.13;;;6.50;99.90;;;;;;5389288;26;20272;-80
2024/04/24 07:39:02;;;;;;;9.33;3.57;;;6.60;99.90;;;;;;5389041;26;20237;-78
2024/04/24 07:41:31;;;;;;;8.83;2.50;;;6.80;99.90;;;;;;5388630;26;20234;-79
2024/04/24 07:44:00;;;;;;;9.40;2.50;;;7.10;99.90;;;;;;5376992;26;20234;-78
2024/04/24 07:46:30;;;;;;;9.37;2.27;;;7.20;99.90;;;;;;5353976;26;20736;-77
2024/04/24 07:49:01;;;;;;;6.83;2.40;;;7.20;99.90;;;;;;5384104;26;20705;-77
2024/04/24 07:51:30;;;;;;;12.53;2.37;;;7.20;99.90;;;;;;5388825;26;20561;-78
2024/04/24 07:53:59;;;;;;;11.87;2.50;;;6.80;62.30;;;;;;5389734;26;20284;-80
2024/04/24 07:56:27;;;;;;;4.87;2.07;;;6.90;99.90;;;;;;5381357;26;20283;-79
2024/04/24 07:58:56;;;;;;;8.07;2.00;;;6.80;99.90;;;;;;5389387;26;20242;-80
2024/04/24 08:01:25;;;;;;;7.63;2.60;;;6.70;99.90;;;;;;5389427;26;20259;-80
2024/04/24 08:03:53;;;;;;;6.90;1.83;;;6.70;1.00;;;;;;5389154;26;20230;-76
2024/04/24 08:06:25;;;;;;;4.97;1.90;;;6.50;99.90;;;;;;5388306;26;20554;-80
2024/04/24 08:08:53;;;;;;;8.30;2.00;;;6.50;99.90;;;;;;5388256;26;20288;-77
2024/04/24 08:11:22;;;;;;;7.43;2.10;;;6.80;99.90;;;;;;5386324;26;20280;-79
2024/04/24 08:13:51;;;;;;;4.60;1.73;;;6.90;99.90;;;;;;5386542;26;20256;-78
2024/04/24 08:16:19;;;;;;;4.17;1.90;;;7.00;99.90;;;;;;5372797;26;20233;-77
2024/04/24 08:18:49;;;;;;;5.43;1.83;;;7.00;26.00;;;;;;5388538;26;20237;-77
2024/04/24 08:21:18;;;;;;;9.30;2.10;;;7.00;1.00;;;;;;5373800;26;20230;-80
2024/04/24 08:23:49;;;;;;;10.13;2.07;;;7.20;2.50;;;;;;5388735;26;20268;-79
2024/04/24 08:26:18;;;;;;;10.27;2.27;;;7.60;72.00;;;;;;5389335;26;20277;-79
2024/04/24 08:28:47;;;;;;;6.73;1.97;;;7.70;99.90;;;;;;5388139;26;20747;-79
2024/04/24 08:31:16;;;;;;;8.27;2.00;;;7.80;99.90;;;;;;5374806;26;20624;-80
2024/04/24 08:33:42;;;;;;;5.70;2.13;;;7.40;1.00;;;;;;5388305;26;20249;-78
2024/04/24 08:36:13;;;;;;;5.33;1.70;;;7.40;1.00;;;;;;5388827;26;20229;-76
2024/04/24 08:38:42;;;;;;;8.07;2.20;;;7.60;46.50;;;;;;5388607;26;20724;-78
2024/04/24 08:41:14;;;;;;;3.67;1.50;;;7.30;1.00;;;;;;5388783;26;20233;-76
2024/04/24 08:43:44;;;;;;;8.13;2.00;;;7.30;1.00;;;;;;5388554;26;20576;-77
2024/04/24 08:46:14;;;;;;;8.03;1.90;;;7.40;1.00;;;;;;5387875;26;20587;-78
2024/04/24 08:48:44;;;;;;;4.60;1.67;;;7.70;1.00;;;;;;5362923;26;20280;-78
2024/04/24 08:51:14;;;;;;;8.27;1.83;;;8.10;1.00;;;;;;5387945;26;20234;-80
2024/04/24 08:53:51;;;;;;;3.40;1.30;;;8.10;1.00;;;;;;5386641;26;20272;-80
2024/04/24 08:56:29;;;;;;;6.70;2.10;;;8.00;1.00;;;;;;5386150;26;20229;-79
2024/04/24 08:59:06;;;;;;;5.13;1.43;;;7.90;1.00;;;;;;5376661;26;20279;-79
2024/04/24 09:01:40;;;;;;;4.80;1.50;;;7.80;1.00;;;;;;5386711;26;20229;-79
2024/04/24 09:04:10;;;;;;;3.67;1.77;;;7.50;1.00;;;;;;5379422;26;20243;-80
2024/04/24 09:06:41;;;;;;;4.97;1.87;;;7.60;1.00;;;;;;5371895;26;20763;-79
2024/04/24 09:09:10;;;;;;;3.63;1.57;;;7.30;1.00;;;;;;5386583;26;21001;-78
2024/04/24 09:11:41;;;;;;;3.80;2.00;;;7.00;26.60;;;;;;5388128;26;20230;-80
2024/04/24 09:14:10;;;;;;;4.53;1.60;;;7.30;95.50;;;;;;5382925;26;20233;-78
2024/04/24 09:16:41;;;;;;;5.03;1.80;;;7.40;1.00;;;;;;5386818;26;20952;-79
2024/04/24 09:19:10;;;;;;;3.33;1.53;;;7.80;1.00;;;;;;5386657;26;20249;-77
2024/04/24 09:21:39;;;;;;;2.77;1.43;;;8.10;1.00;;;;;;5382050;26;20268;-81
2024/04/24 09:24:08;;;;;;;4.43;1.80;;;8.00;1.00;;;;;;5387957;26;20331;-80
2024/04/24 09:26:42;;;;;;;3.37;1.53;;;8.20;1.00;;;;;;5365033;26;20296;-79
2024/04/24 09:29:11;;;;;;;6.43;2.37;;;8.30;1.00;;;;;;5386883;26;20237;-76
2024/04/24 09:31:40;;;;;;;2.60;1.60;;;8.40;1.00;;;;;;5387956;26;20649;-77
2024/04/24 09:34:09;;;;;;;3.63;1.70;;;8.70;1.00;;;;;;5386223;26;20613;-76
2024/04/24 09:36:41;;;;;;;5.80;1.90;;;8.90;1.00;;;;;;5372203;26;20320;-80
2024/04/24 09:39:07;;;;;;;5.70;1.40;;;8.80;1.00;;;;;;5385627;26;20292;-79
2024/04/24 09:41:36;;;;;;;4.23;1.77;;;8.70;1.00;;;;;;5381747;26;20640;-79
2024/04/24 09:44:14;;;;;;;2.43;1.27;;;8.60;1.00;;;;;;5384715;26;20271;-78
2024/04/24 09:46:48;;;;;;;2.53;1.23;;;8.40;1.00;;;;;;5386545;26;20253;-78
2024/04/24 09:49:17;;;;;;;2.30;1.40;;;8.60;1.00;;;;;;5386196;26;20339;-78
2024/04/24 09:51:45;;;;;;;3.10;1.47;;;8.50;1.00;;;;;;5386153;26;20794;-77
2024/04/24 09:54:14;;;;;;;2.40;1.50;;;8.40;1.00;;;;;;5383163;26;20283;-77
2024/04/24 09:56:45;;;;;;;4.60;1.73;;;8.40;1.00;;;;;;5380238;26;20582;-78
2024/04/24 09:59:17;;;;;;;2.40;1.30;;;8.30;1.00;;;;;;5383528;26;20245;-79
2024/04/24 10:01:53;;;;;;;2.10;1.10;;;8.00;1.00;;;;;;5386833;26;20279;-77
2024/04/24 10:04:22;;;;;;;2.63;1.57;;;7.80;1.00;;;;;;5358420;26;20293;-80
2024/04/24 10:06:53;;;;;;;2.90;1.50;;;7.90;99.90;;;;;;5373131;26;20708;-80
2024/04/24 10:09:27;;;;;;;1.63;0.97;;;8.10;1.00;;;;;;5387464;26;20241;-81
2024/04/24 10:12:01;;;;;;;3.23;1.60;;;8.20;1.00;;;;;;5352837;26;20261;-77
2024/04/24 10:14:36;;;;;;;3.13;1.40;;;8.40;1.00;;;;;;5382723;26;20279;-80
2024/04/24 10:17:06;;;;;;;1.77;1.50;;;8.00;1.00;;;;;;5387437;26;20225;-79
2024/04/24 10:19:36;;;;;;;3.43;1.37;;;8.10;1.00;;;;;;5356284;26;20235;-80
2024/04/24 10:22:06;;;;;;;1.87;1.30;;;8.10;1.00;;;;;;5386865;26;20286;-78
2024/04/24 10:24:35;;;;;;;1.33;1.00;;;8.20;1.00;;;;;;5385685;26;20267;-77
2024/04/24 10:27:06;;;;;;;1.77;1.47;;;8.30;1.00;;;;;;5385182;26;20326;-80
2024/04/24 10:29:40;;;;;;;1.83;1.50;;;8.20;99.90;;;;;;5385719;26;20234;-79
2024/04/24 10:32:10;;;;;;;1.37;1.20;;;8.20;99.90;;;;;;5360952;26;20275;-77
2024/04/24 10:34:39;;;;;;;2.60;1.10;;;8.40;99.90;;;;;;5361727;26;20272;-78
2024/04/24 10:37:08;;;;;;;2.17;1.40;;;8.20;99.90;;;;;;5388725;26;20260;-80
2024/04/24 10:39:44;;;;;;;1.60;1.30;;;8.20;99.90;;;;;;5390247;26;20225;-79
2024/04/24 10:42:13;;;;;;;2.97;1.23;;;8.30;99.90;;;;;;5389737;26;20221;-79
2024/04/24 10:44:46;;;;;;;4.10;1.87;;;8.10;99.90;;;;;;5388755;26;20276;-80
2024/04/24 10:47:16;;;;;;;2.57;1.67;;;8.20;99.90;;;;;;5388383;26;20426;-81
2024/04/24 10:49:53;;;;;;;2.50;1.47;;;8.20;99.90;;;;;;5389784;26;20225;-80
2024/04/24 10:52:21;;;;;;;3.17;1.63;;;8.40;99.90;;;;;;5382372;26;20257;-80
2024/04/24 10:54:50;;;;;;;2.87;1.67;;;8.40;99.90;;;;;;5379366;26;20241;-80
2024/04/24 10:57:18;;;;;;;3.90;1.80;;;8.70;99.90;;;;;;5388599;26;20280;-81
2024/04/24 10:59:50;;;;;;;1.83;1.67;;;8.70;99.90;;;;;;5389418;26;20245;-80
2024/04/24 11:02:20;;;;;;;2.83;1.20;;;8.70;99.90;;;;;;5389837;26;20238;-81
2024/04/24 11:04:50;;;;;;;6.63;1.80;;;8.70;99.90;;;;;;5387813;26;20319;-81
2024/04/24 11:07:19;;;;;;;2.07;1.77;;;8.80;99.90;;;;;;5389320;26;20233;-81
2024/04/24 11:09:49;;;;;;;2.50;1.73;;;8.70;99.90;;;;;;5389376;26;20287;-78
2024/04/24 11:12:19;;;;;;;6.87;1.90;;;8.80;99.90;;;;;;5389724;26;20723;-80
2024/04/24 11:14:52;;;;;;;3.40;1.93;;;9.00;99.90;;;;;;5388710;26;20229;-80
2024/04/24 11:17:21;;;;;;;3.20;1.83;;;9.10;91.70;;;;;;5388689;26;20241;-80
2024/04/24 11:19:50;;;;;;;3.47;1.70;;;9.30;49.80;;;;;;5385082;26;20279;-80
2024/04/24 11:22:28;;;;;;;3.10;1.63;;;9.40;53.40;;;;;;5374598;26;20245;-80
2024/04/24 11:24:57;;;;;;;2.67;1.60;;;9.30;13.30;;;;;;5384065;26;20244;-79
2024/04/24 11:27:26;;;;;;;3.83;1.83;;;9.30;1.00;;;;;;5388945;26;20585;-80
2024/04/24 11:29:57;;;;;;;3.80;1.80;;;9.50;1.00;;;;;;5387773;26;20280;-80
2024/04/24 11:32:26;;;;;;;2.20;1.60;;;10.00;1.00;;;;;;5390101;26;20295;-80
2024/04/24 11:34:55;;;;;;;5.00;2.10;;;9.80;1.00;;;;;;5382868;26;20305;-79
2024/04/24 11:37:25;;;;;;;2.20;1.90;;;9.90;1.00;;;;;;5388681;26;20229;-79
2024/04/24 11:39:54;;;;;;;2.97;1.90;;;10.20;1.00;;;;;;5387261;26;20289;-77
2024/04/24 11:42:23;;;;;;;2.30;2.00;;;10.50;1.00;;;;;;5388243;26;20299;-78
2024/04/24 11:44:51;;;;;;;2.93;1.80;;;10.10;1.00;;;;;;5383426;26;20237;-80
2024/04/24 11:47:23;;;;;;;4.97;2.10;;;9.30;1.00;;;;;;5376038;26;20249;-78
2024/04/24 11:49:50;;;;;;;3.33;2.07;;;9.50;1.00;;;;;;5387013;26;20233;-77
2024/04/24 11:52:19;;;;;;;3.83;1.87;;;9.60;1.00;;;;;;5378324;26;20271;-80
2024/04/24 11:54:51;;;;;;;8.97;2.10;;;10.00;1.00;;;;;;5371109;26;20242;-80
2024/04/24 11:57:20;;;;;;;3.37;1.80;;;10.60;1.00;;;;;;5386580;26;20348;-79
2024/04/24 11:59:50;;;;;;;4.20;2.00;;;11.20;1.00;;;;;;5384197;26;20237;-76
2024/04/24 12:02:19;;;;;;;2.87;1.83;;;11.30;1.00;;;;;;5386962;26;20277;-77
2024/04/24 12:04:50;;;;;;;2.87;1.80;;;11.10;1.00;;;;;;5387184;26;20237;-81
2024/04/24 12:07:19;;;;;;;2.77;1.50;;;11.20;1.00;;;;;;5372523;26;20579;-81
2024/04/24 12:09:48;;;;;;;4.33;1.87;;;11.60;1.00;;;;;;5384566;26;20339;-80
2024/04/24 12:12:17;;;;;;;3.97;1.70;;;11.50;1.00;;;;;;5387400;26;20331;-78
2024/04/24 12:14:50;;;;;;;3.10;1.87;;;12.10;1.00;;;;;;5373493;26;20634;-80
2024/04/24 12:17:19;;;;;;;1.70;1.60;;;12.40;1.00;;;;;;5372459;26;20325;-79
2024/04/24 12:19:51;;;;;;;2.70;1.30;;;12.00;1.00;;;;;;5386370;26;20234;-79
2024/04/24 12:22:19;;;;;;;2.97;2.07;;;12.00;1.00;;;;;;5380113;26;20231;-79
2024/04/24 12:24:48;;;;;;;1.53;1.43;;;11.60;1.00;;;;;;5384101;26;20245;-79
2024/04/24 12:27:17;;;;;;;1.63;1.20;;;11.70;1.00;;;;;;5385827;26;20319;-81
2024/04/24 12:29:47;;;;;;;2.27;1.70;;;12.00;1.00;;;;;;5381653;26;20233;-80
2024/04/24 12:32:16;;;;;;;3.77;2.30;;;12.20;1.00;;;;;;5389261;26;20245;-79
2024/04/24 12:34:45;;;;;;;2.33;1.50;;;11.80;1.00;;;;;;5390322;26;20230;-81
2024/04/24 12:37:16;;;;;;;4.37;2.90;;;11.70;1.00;;;;;;5376422;26;20298;-79
2024/04/24 12:39:44;;;;;;;1.50;1.40;;;11.90;1.00;;;;;;5376475;26;20249;-79
2024/04/24 12:42:13;;;;;;;1.50;1.07;;;12.60;1.00;;;;;;5380015;26;20237;-79
2024/04/24 12:44:42;;;;;;;3.43;1.30;;;12.40;1.00;;;;;;5386926;26;20728;-78
2024/04/24 12:47:12;;;;;;;1.97;1.40;;;12.70;99.90;;;;;;5388962;26;20279;-80
2024/04/24 12:49:41;;;;;;;2.13;1.67;;;11.90;99.90;;;;;;5384308;26;20648;-79
2024/04/24 12:52:09;;;;;;;1.50;1.40;;;11.60;99.90;;;;;;5384542;26;20798;-78
2024/04/24 12:54:41;;;;;;;1.87;1.67;;;11.30;99.90;;;;;;5384597;26;20276;-79
2024/04/24 12:57:09;;;;;;;1.43;0.80;;;11.30;1.00;;;;;;5357839;26;20254;-78
2024/04/24 12:59:38;;;;;;;1.60;1.20;;;10.10;1.00;;;;;;5382758;26;20272;-77
2024/04/24 13:02:08;;;;;;;2.50;1.10;;;9.80;1.00;;;;;;5373326;26;20599;-78
2024/04/24 13:04:37;;;;;;;2.13;1.30;;;9.50;1.00;;;;;;5383757;26;20233;-78
2024/04/24 13:07:06;;;;;;;1.23;1.17;;;9.40;1.00;;;;;;5383948;26;20766;-78
2024/04/24 13:09:36;;;;;;;1.23;1.10;;;8.80;1.00;;;;;;5384121;26;20268;-79